createdAt,value
2022-09-30T00:04:33.629Z,42.04
2022-09-30T00:09:40.958Z,42.22
2022-09-30T00:14:48.147Z,42.35
2022-09-30T00:19:55.326Z,42.51
2022-09-30T00:25:02.476Z,42.67
2022-09-30T00:30:09.706Z,42.78
2022-09-30T00:35:20.514Z,42.87
2022-09-30T00:40:24.066Z,42.91
2022-09-30T00:45:31.259Z,43.08
2022-09-30T00:50:38.463Z,43.18
2022-09-30T00:55:45.667Z,43.27
2022-09-30T01:00:53.007Z,43.38
2022-09-30T01:06:00.140Z,43.48
2022-09-30T01:11:08.491Z,43.57
2022-09-30T01:16:14.729Z,43.59
2022-09-30T01:21:21.744Z,43.72
2022-09-30T01:26:29.006Z,43.80
2022-09-30T01:31:36.362Z,43.82
2022-09-30T01:36:43.423Z,43.90
2022-09-30T01:41:50.608Z,43.97
2022-09-30T01:46:57.890Z,44.04
2022-09-30T01:52:04.977Z,44.03
2022-09-30T01:57:12.179Z,43.94
2022-09-30T02:02:19.631Z,44.01
2022-09-30T02:07:26.653Z,44.01
2022-09-30T02:12:33.831Z,44.03
2022-09-30T02:17:41.055Z,44.07
2022-09-30T02:22:48.227Z,44.09
2022-09-30T02:27:55.471Z,44.16
2022-09-30T02:33:02.737Z,44.19
2022-09-30T02:38:09.933Z,44.18
2022-09-30T02:43:17.183Z,44.19
2022-09-30T02:48:24.522Z,44.13
2022-09-30T02:53:31.673Z,44.23
2022-09-30T02:58:38.912Z,44.29
2022-09-30T03:03:46.138Z,44.39
2022-09-30T03:08:53.399Z,44.48
2022-09-30T03:14:00.588Z,44.53
2022-09-30T03:19:07.841Z,44.59
2022-09-30T03:24:15.030Z,44.60
2022-09-30T03:29:22.324Z,44.62
2022-09-30T03:34:29.521Z,44.51
2022-09-30T03:39:36.761Z,44.49
2022-09-30T03:44:43.975Z,44.47
2022-09-30T03:49:51.191Z,44.49
2022-09-30T03:54:58.333Z,44.40
2022-09-30T04:00:05.573Z,44.41
2022-09-30T04:05:12.848Z,44.39
2022-09-30T04:10:20.026Z,44.43
2022-09-30T04:15:27.260Z,44.46
2022-09-30T04:20:34.488Z,44.43
2022-09-30T04:25:41.688Z,44.45
2022-09-30T04:30:48.959Z,44.44
2022-09-30T04:35:56.235Z,44.46
2022-09-30T04:41:03.388Z,44.46
2022-09-30T04:46:10.659Z,44.56
2022-09-30T04:51:17.816Z,44.68
2022-09-30T04:56:25.003Z,44.72
2022-09-30T05:01:32.213Z,44.72
2022-09-30T05:06:39.429Z,44.64
2022-09-30T05:11:46.616Z,44.61
2022-09-30T05:16:53.819Z,44.61
2022-09-30T05:22:01.040Z,44.56
2022-09-30T05:27:08.294Z,44.50
2022-09-30T05:32:15.534Z,44.47
2022-09-30T05:37:22.766Z,44.45
2022-09-30T05:42:29.980Z,44.48
2022-09-30T05:47:37.261Z,44.50
2022-09-30T05:52:44.581Z,44.50
2022-09-30T05:57:51.669Z,44.52
2022-09-30T06:02:58.954Z,44.52
2022-09-30T06:08:06.091Z,44.57
2022-09-30T06:13:13.275Z,44.59
2022-09-30T06:18:20.505Z,44.66
2022-09-30T06:23:27.728Z,44.72
2022-09-30T06:28:34.883Z,44.75
2022-09-30T06:33:42.150Z,44.91
2022-09-30T06:38:49.394Z,44.96
2022-09-30T06:44:10.166Z,44.92
2022-09-30T06:49:12.999Z,44.91
2022-09-30T06:54:11.163Z,44.83
2022-09-30T06:59:18.437Z,44.79
2022-09-30T07:04:25.535Z,44.75
2022-09-30T07:09:32.837Z,44.75
2022-09-30T07:14:39.980Z,44.75
2022-09-30T07:19:47.263Z,44.77
2022-09-30T07:24:54.511Z,44.80
2022-09-30T07:30:10.176Z,44.83
2022-09-30T07:35:08.836Z,44.80
2022-09-30T07:40:16.136Z,44.80
2022-09-30T07:45:23.298Z,44.83
2022-09-30T07:50:30.513Z,44.88
2022-09-30T07:55:37.705Z,45.01
2022-09-30T08:00:45.029Z,45.18
2022-09-30T08:05:52.092Z,45.40
2022-09-30T08:10:59.390Z,45.43
2022-09-30T08:16:06.651Z,45.27
2022-09-30T08:21:13.807Z,45.78
2022-09-30T08:26:21.004Z,45.73
2022-09-30T08:31:28.348Z,45.46
2022-09-30T08:36:35.517Z,45.30
2022-09-30T08:41:42.745Z,45.05
2022-09-30T08:46:52.690Z,44.86
2022-09-30T08:51:57.115Z,44.75
2022-09-30T08:57:04.325Z,44.64
2022-09-30T09:02:15.230Z,44.50
2022-09-30T09:07:18.680Z,44.46
2022-09-30T09:12:25.874Z,44.40
2022-09-30T09:17:33.058Z,44.37
2022-09-30T09:22:40.250Z,44.31
2022-09-30T09:27:47.543Z,44.33
2022-09-30T09:32:54.685Z,44.30
2022-09-30T09:38:01.862Z,44.26
2022-09-30T09:43:09.064Z,44.26
2022-09-30T09:48:16.271Z,44.20
2022-09-30T09:53:23.481Z,44.31
2022-09-30T09:58:30.727Z,44.38
2022-09-30T10:03:37.917Z,44.31
2022-09-30T10:08:45.155Z,44.23
2022-09-30T10:13:52.435Z,44.17
2022-09-30T10:18:59.626Z,44.11
2022-09-30T10:24:06.813Z,44.05
2022-09-30T10:29:14.054Z,43.97
2022-09-30T10:34:21.194Z,43.92
2022-09-30T10:39:28.424Z,43.86
2022-09-30T10:44:35.622Z,43.85
2022-09-30T10:49:42.797Z,43.80
2022-09-30T10:54:49.975Z,43.82
2022-09-30T10:59:57.165Z,43.82
2022-09-30T11:05:04.376Z,43.80
2022-09-30T11:10:11.577Z,43.85
2022-09-30T11:15:18.839Z,43.88
2022-09-30T11:20:26.063Z,43.90
2022-09-30T11:25:33.240Z,44.01
2022-09-30T11:30:40.554Z,44.06
2022-09-30T11:35:47.704Z,44.13
2022-09-30T11:40:54.965Z,44.17
2022-09-30T11:46:02.227Z,44.13
2022-09-30T11:51:09.448Z,44.14
2022-09-30T11:56:16.726Z,44.14
2022-09-30T12:01:24.065Z,44.17
2022-09-30T12:06:31.736Z,44.06
2022-09-30T12:11:38.450Z,43.96
2022-09-30T12:16:45.783Z,43.92
2022-09-30T12:21:53.842Z,43.98
2022-09-30T12:27:01.279Z,44.01
2022-09-30T12:32:08.831Z,44.05
2022-09-30T12:37:15.875Z,44.08
2022-09-30T12:42:23.118Z,44.14
2022-09-30T12:47:30.369Z,44.11
2022-09-30T12:52:37.590Z,44.09
2022-09-30T12:57:44.811Z,44.33
2022-09-30T13:02:52.079Z,44.27
2022-09-30T13:07:59.206Z,44.34
2022-09-30T13:13:06.425Z,44.38
2022-09-30T13:18:13.641Z,44.42
2022-09-30T13:23:20.820Z,44.51
2022-09-30T13:28:28.104Z,44.49
2022-09-30T13:33:35.598Z,44.45
2022-09-30T13:38:42.759Z,44.81
2022-09-30T13:43:49.918Z,44.87
2022-09-30T13:48:57.179Z,45.29
2022-09-30T13:54:04.357Z,46.72
2022-09-30T13:59:11.576Z,46.27
2022-09-30T14:04:18.782Z,46.18
2022-09-30T14:09:25.973Z,46.42
2022-09-30T14:14:33.172Z,47.42
2022-09-30T14:19:40.407Z,47.33
2022-09-30T14:24:47.583Z,46.80
2022-09-30T14:29:54.859Z,46.27
2022-09-30T14:35:02.089Z,46.56
2022-09-30T14:40:09.221Z,46.62
2022-09-30T14:45:16.430Z,46.44
2022-09-30T14:50:23.669Z,46.88
2022-09-30T14:55:30.866Z,47.36
2022-09-30T15:00:38.033Z,46.98
2022-09-30T15:05:45.260Z,47.30
2022-09-30T15:10:52.448Z,47.26
2022-09-30T15:15:59.684Z,47.07
2022-09-30T15:21:06.876Z,46.97
2022-09-30T15:26:14.061Z,46.93
2022-09-30T15:31:21.587Z,47.49
2022-09-30T15:36:29.100Z,47.36
2022-09-30T15:41:36.192Z,47.39
2022-09-30T15:46:43.422Z,47.57
2022-09-30T15:51:50.680Z,46.97
2022-09-30T15:56:57.834Z,47.10
2022-09-30T16:02:05.664Z,47.14
2022-09-30T16:07:12.851Z,46.83
2022-09-30T16:12:20.121Z,46.77
2022-09-30T16:17:27.331Z,46.60
2022-09-30T16:22:34.697Z,46.43
2022-09-30T16:27:41.935Z,46.07
2022-09-30T16:32:49.062Z,46.00
2022-09-30T16:37:56.295Z,45.89
2022-09-30T16:43:07.332Z,45.96
2022-09-30T16:48:10.853Z,45.97
2022-09-30T16:53:18.142Z,45.84
2022-09-30T16:58:25.372Z,45.69
2022-09-30T17:03:32.686Z,45.62
2022-09-30T17:08:39.924Z,45.53
2022-09-30T17:13:47.144Z,45.56
2022-09-30T17:18:54.691Z,45.87
2022-09-30T17:24:02.498Z,46.20
2022-09-30T17:29:30.943Z,46.14
2022-09-30T17:34:17.036Z,46.10
2022-09-30T17:39:24.265Z,46.10
2022-09-30T17:44:31.447Z,46.17
2022-09-30T17:49:39.451Z,46.22
2022-09-30T17:54:51.162Z,46.66
2022-09-30T17:59:53.810Z,46.33
2022-09-30T18:05:01.060Z,46.27
2022-09-30T18:10:08.603Z,46.31
2022-09-30T18:15:15.956Z,46.13
2022-09-30T18:20:25.437Z,46.10
2022-09-30T18:25:30.446Z,45.91
2022-09-30T18:30:37.691Z,45.94
2022-09-30T18:35:44.945Z,45.82
2022-09-30T18:40:52.168Z,45.65
2022-09-30T18:45:59.429Z,45.64
2022-09-30T18:51:06.545Z,45.72
2022-09-30T18:56:13.777Z,45.88
2022-09-30T19:01:21.168Z,45.89
2022-09-30T19:06:28.179Z,45.88
2022-09-30T19:11:35.995Z,45.98
2022-09-30T19:16:43.664Z,46.06
2022-09-30T19:21:50.747Z,46.33
2022-09-30T19:26:58.054Z,46.33
2022-09-30T19:32:05.489Z,46.35
2022-09-30T19:37:25.194Z,46.27
2022-09-30T19:42:20.808Z,46.22
2022-09-30T19:47:32.303Z,46.11
2022-09-30T19:52:36.035Z,46.14
2022-09-30T19:57:42.316Z,46.08
2022-09-30T20:02:49.753Z,46.13
2022-09-30T20:07:57.567Z,46.17
2022-09-30T20:13:04.984Z,46.07
2022-09-30T20:18:12.233Z,46.01
2022-09-30T20:23:19.524Z,45.96
2022-09-30T20:28:26.804Z,46.05
2022-09-30T20:33:33.911Z,46.10
2022-09-30T20:38:41.115Z,46.07
2022-09-30T20:43:48.449Z,46.16
2022-09-30T20:48:55.514Z,46.04
2022-09-30T20:54:02.664Z,45.97
2022-09-30T20:59:09.912Z,45.96
2022-09-30T21:04:17.062Z,45.95
2022-09-30T21:09:24.276Z,45.85
2022-09-30T21:14:31.493Z,45.78
2022-09-30T21:19:38.678Z,45.83
2022-09-30T21:24:45.846Z,45.80
2022-09-30T21:29:53.150Z,45.85
2022-09-30T21:35:00.356Z,45.90
2022-09-30T21:40:07.530Z,45.82
2022-09-30T21:45:14.692Z,45.81
2022-09-30T21:50:21.912Z,45.74
2022-09-30T21:55:29.115Z,45.59
2022-09-30T22:00:36.315Z,45.60
2022-09-30T22:05:43.516Z,45.49
2022-09-30T22:10:50.727Z,45.47
2022-09-30T22:15:58.440Z,45.43
2022-09-30T22:21:05.634Z,45.57
2022-09-30T22:26:12.818Z,45.65
2022-09-30T22:31:20.133Z,45.63
2022-09-30T22:36:27.222Z,45.59
2022-09-30T22:41:34.828Z,45.40
2022-09-30T22:46:41.682Z,45.60
2022-09-30T22:51:48.861Z,45.66
2022-09-30T22:56:56.060Z,45.66
2022-09-30T23:02:03.372Z,45.69
2022-09-30T23:07:10.499Z,45.87
2022-09-30T23:12:17.670Z,45.74
2022-09-30T23:17:24.854Z,45.75
2022-09-30T23:22:32.025Z,45.59
2022-09-30T23:27:39.179Z,45.50
2022-09-30T23:32:46.818Z,44.75
2022-09-30T23:37:54.006Z,44.33
2022-09-30T23:43:01.174Z,44.12
2022-09-30T23:48:08.416Z,43.79
2022-09-30T23:53:15.602Z,43.32
2022-09-30T23:58:22.812Z,43.08
